sensor_id;sensor_type;location;lat;lon;timestamp;P1;durP1;ratioP1;P2;durP2;ratioP2
19595;SDS011;9945;46.010;8.946;2022-11-04T00:01:23;1.00;;;1.00;;
19595;SDS011;9945;46.010;8.946;2022-11-04T00:03:50;0.80;;;0.80;;
19595;SDS011;9945;46.010;8.946;2022-11-04T00:06:19;0.88;;;0.80;;
19595;SDS011;9945;46.010;8.946;2022-11-04T00:08:47;2.22;;;1.00;;
19595;SDS011;9945;46.010;8.946;2022-11-04T00:11:14;1.00;;;0.73;;
19595;SDS011;9945;46.010;8.946;2022-11-04T00:13:59;1.00;;;0.90;;
19595;SDS011;9945;46.010;8.946;2022-11-04T00:16:25;1.00;;;0.90;;
19595;SDS011;9945;46.010;8.946;2022-11-04T00:19:10;1.00;;;0.98;;
19595;SDS011;9945;46.010;8.946;2022-11-04T00:21:38;1.15;;;0.93;;
19595;SDS011;9945;46.010;8.946;2022-11-04T00:24:22;1.15;;;1.15;;
19595;SDS011;9945;46.010;8.946;2022-11-04T00:27:07;1.85;;;1.08;;
19595;SDS011;9945;46.010;8.946;2022-11-04T00:29:52;0.70;;;0.70;;
19595;SDS011;9945;46.010;8.946;2022-11-04T00:32:19;1.35;;;0.70;;
19595;SDS011;9945;46.010;8.946;2022-11-04T00:35:03;0.77;;;0.77;;
19595;SDS011;9945;46.010;8.946;2022-11-04T00:37:33;1.02;;;1.00;;
19595;SDS011;9945;46.010;8.946;2022-11-04T00:40:01;0.80;;;0.80;;
19595;SDS011;9945;46.010;8.946;2022-11-04T00:42:29;0.60;;;0.60;;
19595;SDS011;9945;46.010;8.946;2022-11-04T00:44:56;2.83;;;0.80;;
19595;SDS011;9945;46.010;8.946;2022-11-04T00:47:23;1.08;;;0.98;;
19595;SDS011;9945;46.010;8.946;2022-11-04T00:49:50;0.80;;;0.80;;
19595;SDS011;9945;46.010;8.946;2022-11-04T00:52:17;0.70;;;0.70;;
19595;SDS011;9945;46.010;8.946;2022-11-04T00:54:45;0.70;;;0.70;;
19595;SDS011;9945;46.010;8.946;2022-11-04T00:57:12;0.63;;;0.63;;
19595;SDS011;9945;46.010;8.946;2022-11-04T00:59:39;0.43;;;0.43;;
19595;SDS011;9945;46.010;8.946;2022-11-04T01:02:07;0.50;;;0.50;;
19595;SDS011;9945;46.010;8.946;2022-11-04T01:04:35;0.80;;;0.40;;
19595;SDS011;9945;46.010;8.946;2022-11-04T01:07:02;0.95;;;0.60;;
19595;SDS011;9945;46.010;8.946;2022-11-04T01:09:29;0.40;;;0.40;;
19595;SDS011;9945;46.010;8.946;2022-11-04T01:11:57;0.60;;;0.60;;
19595;SDS011;9945;46.010;8.946;2022-11-04T01:14:24;0.50;;;0.50;;
19595;SDS011;9945;46.010;8.946;2022-11-04T01:16:51;0.40;;;0.40;;
19595;SDS011;9945;46.010;8.946;2022-11-04T01:19:18;0.57;;;0.57;;
19595;SDS011;9945;46.010;8.946;2022-11-04T01:21:45;0.50;;;0.50;;
19595;SDS011;9945;46.010;8.946;2022-11-04T01:24:12;0.53;;;0.50;;
19595;SDS011;9945;46.010;8.946;2022-11-04T01:26:38;0.50;;;0.50;;
19595;SDS011;9945;46.010;8.946;2022-11-04T01:29:07;0.40;;;0.40;;
19595;SDS011;9945;46.010;8.946;2022-11-04T01:31:34;0.47;;;0.47;;
19595;SDS011;9945;46.010;8.946;2022-11-04T01:34:00;0.55;;;0.50;;
19595;SDS011;9945;46.010;8.946;2022-11-04T01:36:27;2.28;;;0.50;;
19595;SDS011;9945;46.010;8.946;2022-11-04T01:38:55;0.68;;;0.65;;
19595;SDS011;9945;46.010;8.946;2022-11-04T01:41:22;0.63;;;0.63;;
19595;SDS011;9945;46.010;8.946;2022-11-04T01:43:51;0.85;;;0.80;;
19595;SDS011;9945;46.010;8.946;2022-11-04T01:46:23;0.68;;;0.68;;
19595;SDS011;9945;46.010;8.946;2022-11-04T01:48:55;0.80;;;0.80;;
19595;SDS011;9945;46.010;8.946;2022-11-04T01:51:26;0.80;;;0.77;;
19595;SDS011;9945;46.010;8.946;2022-11-04T01:53:58;0.65;;;0.60;;
19595;SDS011;9945;46.010;8.946;2022-11-04T01:56:27;0.45;;;0.45;;
19595;SDS011;9945;46.010;8.946;2022-11-04T01:58:55;0.50;;;0.50;;
19595;SDS011;9945;46.010;8.946;2022-11-04T02:01:26;0.82;;;0.57;;
19595;SDS011;9945;46.010;8.946;2022-11-04T02:03:55;0.70;;;0.70;;
19595;SDS011;9945;46.010;8.946;2022-11-04T02:06:45;2.40;;;0.77;;
19595;SDS011;9945;46.010;8.946;2022-11-04T02:09:13;0.40;;;0.40;;
19595;SDS011;9945;46.010;8.946;2022-11-04T02:11:42;0.50;;;0.50;;
19595;SDS011;9945;46.010;8.946;2022-11-04T02:14:26;0.50;;;0.50;;
19595;SDS011;9945;46.010;8.946;2022-11-04T02:16:57;0.47;;;0.47;;
19595;SDS011;9945;46.010;8.946;2022-11-04T02:19:36;0.40;;;0.40;;
19595;SDS011;9945;46.010;8.946;2022-11-04T02:22:30;0.70;;;0.55;;
19595;SDS011;9945;46.010;8.946;2022-11-04T02:28:16;0.43;;;0.43;;
19595;SDS011;9945;46.010;8.946;2022-11-04T02:31:01;0.30;;;0.30;;
19595;SDS011;9945;46.010;8.946;2022-11-04T02:33:35;0.82;;;0.70;;
19595;SDS011;9945;46.010;8.946;2022-11-04T02:36:08;0.40;;;0.40;;
19595;SDS011;9945;46.010;8.946;2022-11-04T02:38:46;0.50;;;0.50;;
19595;SDS011;9945;46.010;8.946;2022-11-04T02:41:21;0.50;;;0.50;;
19595;SDS011;9945;46.010;8.946;2022-11-04T02:44:00;0.37;;;0.37;;
19595;SDS011;9945;46.010;8.946;2022-11-04T02:46:36;1.00;;;0.90;;
19595;SDS011;9945;46.010;8.946;2022-11-04T02:49:11;0.40;;;0.40;;
19595;SDS011;9945;46.010;8.946;2022-11-04T02:51:40;0.40;;;0.40;;
19595;SDS011;9945;46.010;8.946;2022-11-04T02:54:13;0.50;;;0.50;;
19595;SDS011;9945;46.010;8.946;2022-11-04T02:56:47;0.30;;;0.30;;
19595;SDS011;9945;46.010;8.946;2022-11-04T02:59:17;0.30;;;0.30;;
19595;SDS011;9945;46.010;8.946;2022-11-04T03:01:50;0.47;;;0.47;;
19595;SDS011;9945;46.010;8.946;2022-11-04T03:04:20;0.43;;;0.43;;
19595;SDS011;9945;46.010;8.946;2022-11-04T03:06:51;0.40;;;0.40;;
19595;SDS011;9945;46.010;8.946;2022-11-04T03:09:20;0.30;;;0.30;;
19595;SDS011;9945;46.010;8.946;2022-11-04T03:11:49;0.30;;;0.30;;
19595;SDS011;9945;46.010;8.946;2022-11-04T03:14:22;0.40;;;0.40;;
19595;SDS011;9945;46.010;8.946;2022-11-04T03:16:56;0.57;;;0.43;;
19595;SDS011;9945;46.010;8.946;2022-11-04T03:19:28;0.40;;;0.40;;
19595;SDS011;9945;46.010;8.946;2022-11-04T03:21:58;0.30;;;0.30;;
19595;SDS011;9945;46.010;8.946;2022-11-04T03:24:29;0.28;;;0.28;;
19595;SDS011;9945;46.010;8.946;2022-11-04T03:26:57;0.22;;;0.22;;
19595;SDS011;9945;46.010;8.946;2022-11-04T03:29:27;0.45;;;0.32;;
19595;SDS011;9945;46.010;8.946;2022-11-04T03:32:03;0.83;;;0.30;;
19595;SDS011;9945;46.010;8.946;2022-11-04T03:34:40;0.45;;;0.40;;
19595;SDS011;9945;46.010;8.946;2022-11-04T03:37:06;0.43;;;0.43;;
19595;SDS011;9945;46.010;8.946;2022-11-04T03:39:34;0.52;;;0.40;;
19595;SDS011;9945;46.010;8.946;2022-11-04T03:42:02;0.23;;;0.20;;
19595;SDS011;9945;46.010;8.946;2022-11-04T03:44:44;0.60;;;0.40;;
19595;SDS011;9945;46.010;8.946;2022-11-04T03:47:14;0.20;;;0.20;;
19595;SDS011;9945;46.010;8.946;2022-11-04T03:49:43;1.75;;;0.20;;
19595;SDS011;9945;46.010;8.946;2022-11-04T03:52:11;0.20;;;0.20;;
19595;SDS011;9945;46.010;8.946;2022-11-04T03:54:38;0.85;;;0.40;;
19595;SDS011;9945;46.010;8.946;2022-11-04T03:57:09;0.20;;;0.20;;
19595;SDS011;9945;46.010;8.946;2022-11-04T03:59:57;0.30;;;0.30;;
19595;SDS011;9945;46.010;8.946;2022-11-04T04:02:32;0.30;;;0.30;;
19595;SDS011;9945;46.010;8.946;2022-11-04T04:05:17;0.22;;;0.22;;
19595;SDS011;9945;46.010;8.946;2022-11-04T04:07:48;0.20;;;0.20;;
19595;SDS011;9945;46.010;8.946;2022-11-04T04:10:24;0.20;;;0.20;;
19595;SDS011;9945;46.010;8.946;2022-11-04T04:13:12;0.23;;;0.23;;
19595;SDS011;9945;46.010;8.946;2022-11-04T04:15:45;2.40;;;0.22;;
19595;SDS011;9945;46.010;8.946;2022-11-04T04:18:17;0.10;;;0.10;;
19595;SDS011;9945;46.010;8.946;2022-11-04T04:20:49;0.30;;;0.30;;
19595;SDS011;9945;46.010;8.946;2022-11-04T04:23:20;0.10;;;0.10;;
19595;SDS011;9945;46.010;8.946;2022-11-04T04:26:09;0.20;;;0.20;;
19595;SDS011;9945;46.010;8.946;2022-11-04T04:28:55;0.40;;;0.40;;
19595;SDS011;9945;46.010;8.946;2022-11-04T04:31:25;0.30;;;0.30;;
19595;SDS011;9945;46.010;8.946;2022-11-04T04:34:14;0.20;;;0.20;;
19595;SDS011;9945;46.010;8.946;2022-11-04T04:36:43;0.33;;;0.33;;
19595;SDS011;9945;46.010;8.946;2022-11-04T04:39:12;0.20;;;0.20;;
19595;SDS011;9945;46.010;8.946;2022-11-04T04:42:00;0.50;;;0.27;;
19595;SDS011;9945;46.010;8.946;2022-11-04T04:44:45;0.27;;;0.27;;
19595;SDS011;9945;46.010;8.946;2022-11-04T04:47:25;0.10;;;0.10;;
19595;SDS011;9945;46.010;8.946;2022-11-04T04:49:56;0.30;;;0.30;;
19595;SDS011;9945;46.010;8.946;2022-11-04T04:52:24;0.33;;;0.33;;
19595;SDS011;9945;46.010;8.946;2022-11-04T04:54:53;0.40;;;0.40;;
19595;SDS011;9945;46.010;8.946;2022-11-04T04:57:20;0.20;;;0.20;;
19595;SDS011;9945;46.010;8.946;2022-11-04T04:59:47;0.30;;;0.30;;
19595;SDS011;9945;46.010;8.946;2022-11-04T05:02:14;0.10;;;0.10;;
19595;SDS011;9945;46.010;8.946;2022-11-04T05:04:41;0.23;;;0.23;;
19595;SDS011;9945;46.010;8.946;2022-11-04T05:07:09;0.20;;;0.20;;
19595;SDS011;9945;46.010;8.946;2022-11-04T05:09:36;0.30;;;0.30;;
19595;SDS011;9945;46.010;8.946;2022-11-04T05:12:03;1.10;;;0.43;;
19595;SDS011;9945;46.010;8.946;2022-11-04T05:14:30;0.40;;;0.40;;
19595;SDS011;9945;46.010;8.946;2022-11-04T05:16:57;0.57;;;0.30;;
19595;SDS011;9945;46.010;8.946;2022-11-04T05:19:23;0.40;;;0.40;;
19595;SDS011;9945;46.010;8.946;2022-11-04T05:21:50;0.20;;;0.20;;
19595;SDS011;9945;46.010;8.946;2022-11-04T05:24:18;0.30;;;0.23;;
19595;SDS011;9945;46.010;8.946;2022-11-04T05:26:45;0.13;;;0.13;;
19595;SDS011;9945;46.010;8.946;2022-11-04T05:29:12;0.27;;;0.20;;
19595;SDS011;9945;46.010;8.946;2022-11-04T05:31:39;0.30;;;0.30;;
19595;SDS011;9945;46.010;8.946;2022-11-04T05:34:08;0.90;;;0.30;;
19595;SDS011;9945;46.010;8.946;2022-11-04T05:36:36;0.20;;;0.20;;
19595;SDS011;9945;46.010;8.946;2022-11-04T05:39:03;0.20;;;0.20;;
19595;SDS011;9945;46.010;8.946;2022-11-04T05:41:32;1.17;;;0.30;;
19595;SDS011;9945;46.010;8.946;2022-11-04T05:44:00;0.20;;;0.20;;
19595;SDS011;9945;46.010;8.946;2022-11-04T05:46:28;0.20;;;0.20;;
19595;SDS011;9945;46.010;8.946;2022-11-04T05:48:56;0.20;;;0.20;;
19595;SDS011;9945;46.010;8.946;2022-11-04T05:51:24;0.20;;;0.20;;
19595;SDS011;9945;46.010;8.946;2022-11-04T05:53:52;0.20;;;0.20;;
19595;SDS011;9945;46.010;8.946;2022-11-04T05:56:19;0.20;;;0.20;;
19595;SDS011;9945;46.010;8.946;2022-11-04T05:58:47;0.30;;;0.30;;
19595;SDS011;9945;46.010;8.946;2022-11-04T06:03:57;0.40;;;0.40;;
19595;SDS011;9945;46.010;8.946;2022-11-04T06:06:25;2.00;;;0.50;;
19595;SDS011;9945;46.010;8.946;2022-11-04T06:08:54;0.33;;;0.27;;
19595;SDS011;9945;46.010;8.946;2022-11-04T06:11:21;0.37;;;0.37;;
19595;SDS011;9945;46.010;8.946;2022-11-04T06:13:52;0.30;;;0.30;;
19595;SDS011;9945;46.010;8.946;2022-11-04T06:16:19;0.10;;;0.10;;
19595;SDS011;9945;46.010;8.946;2022-11-04T06:18:46;0.30;;;0.30;;
19595;SDS011;9945;46.010;8.946;2022-11-04T06:21:21;1.13;;;0.20;;
19595;SDS011;9945;46.010;8.946;2022-11-04T06:23:50;0.10;;;0.10;;
19595;SDS011;9945;46.010;8.946;2022-11-04T06:26:18;0.20;;;0.20;;
19595;SDS011;9945;46.010;8.946;2022-11-04T06:28:46;0.10;;;0.10;;
19595;SDS011;9945;46.010;8.946;2022-11-04T06:31:14;0.20;;;0.20;;
19595;SDS011;9945;46.010;8.946;2022-11-04T06:33:43;0.10;;;0.10;;
19595;SDS011;9945;46.010;8.946;2022-11-04T06:36:11;0.10;;;0.10;;
19595;SDS011;9945;46.010;8.946;2022-11-04T06:38:39;0.20;;;0.20;;
19595;SDS011;9945;46.010;8.946;2022-11-04T06:41:06;0.50;;;0.20;;
19595;SDS011;9945;46.010;8.946;2022-11-04T06:43:35;0.10;;;0.10;;
19595;SDS011;9945;46.010;8.946;2022-11-04T06:46:02;0.20;;;0.20;;
19595;SDS011;9945;46.010;8.946;2022-11-04T06:48:31;0.20;;;0.20;;
19595;SDS011;9945;46.010;8.946;2022-11-04T06:50:58;0.70;;;0.70;;
19595;SDS011;9945;46.010;8.946;2022-11-04T06:53:26;2.63;;;0.30;;
19595;SDS011;9945;46.010;8.946;2022-11-04T06:55:59;0.20;;;0.20;;
19595;SDS011;9945;46.010;8.946;2022-11-04T06:58:30;0.30;;;0.30;;
19595;SDS011;9945;46.010;8.946;2022-11-04T07:00:57;0.40;;;0.37;;
19595;SDS011;9945;46.010;8.946;2022-11-04T07:03:24;0.47;;;0.20;;
19595;SDS011;9945;46.010;8.946;2022-11-04T07:05:52;0.87;;;0.30;;
19595;SDS011;9945;46.010;8.946;2022-11-04T07:08:19;0.67;;;0.40;;
19595;SDS011;9945;46.010;8.946;2022-11-04T07:10:46;0.20;;;0.20;;
19595;SDS011;9945;46.010;8.946;2022-11-04T07:13:13;0.20;;;0.20;;
19595;SDS011;9945;46.010;8.946;2022-11-04T07:15:40;0.30;;;0.30;;
19595;SDS011;9945;46.010;8.946;2022-11-04T07:18:07;0.30;;;0.30;;
19595;SDS011;9945;46.010;8.946;2022-11-04T07:20:34;0.30;;;0.30;;
19595;SDS011;9945;46.010;8.946;2022-11-04T07:23:03;0.30;;;0.30;;
19595;SDS011;9945;46.010;8.946;2022-11-04T07:25:30;0.30;;;0.30;;
19595;SDS011;9945;46.010;8.946;2022-11-04T07:27:57;0.50;;;0.50;;
19595;SDS011;9945;46.010;8.946;2022-11-04T07:30:25;0.30;;;0.30;;
19595;SDS011;9945;46.010;8.946;2022-11-04T07:32:52;0.35;;;0.35;;
19595;SDS011;9945;46.010;8.946;2022-11-04T07:35:18;0.33;;;0.33;;
19595;SDS011;9945;46.010;8.946;2022-11-04T07:37:45;0.40;;;0.40;;
19595;SDS011;9945;46.010;8.946;2022-11-04T07:40:14;0.30;;;0.30;;
19595;SDS011;9945;46.010;8.946;2022-11-04T07:42:41;0.30;;;0.30;;
19595;SDS011;9945;46.010;8.946;2022-11-04T07:45:08;0.38;;;0.38;;
19595;SDS011;9945;46.010;8.946;2022-11-04T07:47:35;0.20;;;0.20;;
19595;SDS011;9945;46.010;8.946;2022-11-04T07:50:02;0.17;;;0.17;;
19595;SDS011;9945;46.010;8.946;2022-11-04T07:52:30;0.33;;;0.33;;
19595;SDS011;9945;46.010;8.946;2022-11-04T07:54:57;0.22;;;0.20;;
19595;SDS011;9945;46.010;8.946;2022-11-04T07:57:25;0.10;;;0.10;;
19595;SDS011;9945;46.010;8.946;2022-11-04T07:59:53;1.10;;;0.43;;
19595;SDS011;9945;46.010;8.946;2022-11-04T08:02:20;0.98;;;0.80;;
19595;SDS011;9945;46.010;8.946;2022-11-04T08:04:47;1.90;;;0.40;;
19595;SDS011;9945;46.010;8.946;2022-11-04T08:07:15;0.47;;;0.20;;
19595;SDS011;9945;46.010;8.946;2022-11-04T08:09:42;0.25;;;0.25;;
19595;SDS011;9945;46.010;8.946;2022-11-04T08:12:09;0.20;;;0.20;;
19595;SDS011;9945;46.010;8.946;2022-11-04T08:14:37;0.20;;;0.20;;
19595;SDS011;9945;46.010;8.946;2022-11-04T08:17:04;0.25;;;0.25;;
19595;SDS011;9945;46.010;8.946;2022-11-04T08:19:31;0.70;;;0.30;;
19595;SDS011;9945;46.010;8.946;2022-11-04T08:21:58;0.10;;;0.10;;
19595;SDS011;9945;46.010;8.946;2022-11-04T08:24:24;0.10;;;0.10;;
19595;SDS011;9945;46.010;8.946;2022-11-04T08:26:51;0.20;;;0.20;;
19595;SDS011;9945;46.010;8.946;2022-11-04T08:29:18;0.10;;;0.10;;
19595;SDS011;9945;46.010;8.946;2022-11-04T08:31:46;0.40;;;0.40;;
19595;SDS011;9945;46.010;8.946;2022-11-04T08:34:13;0.40;;;0.30;;
19595;SDS011;9945;46.010;8.946;2022-11-04T08:36:42;0.30;;;0.30;;
19595;SDS011;9945;46.010;8.946;2022-11-04T08:39:10;0.20;;;0.20;;
19595;SDS011;9945;46.010;8.946;2022-11-04T08:41:38;0.20;;;0.20;;
19595;SDS011;9945;46.010;8.946;2022-11-04T08:44:07;0.45;;;0.45;;
19595;SDS011;9945;46.010;8.946;2022-11-04T08:46:36;0.38;;;0.32;;
19595;SDS011;9945;46.010;8.946;2022-11-04T08:49:05;0.40;;;0.40;;
19595;SDS011;9945;46.010;8.946;2022-11-04T08:51:33;0.20;;;0.20;;
19595;SDS011;9945;46.010;8.946;2022-11-04T08:54:02;0.40;;;0.40;;
19595;SDS011;9945;46.010;8.946;2022-11-04T08:56:29;0.30;;;0.30;;
19595;SDS011;9945;46.010;8.946;2022-11-04T08:58:58;0.65;;;0.50;;
19595;SDS011;9945;46.010;8.946;2022-11-04T09:01:26;1.55;;;0.65;;
19595;SDS011;9945;46.010;8.946;2022-11-04T09:03:54;0.95;;;0.20;;
19595;SDS011;9945;46.010;8.946;2022-11-04T09:06:24;0.28;;;0.28;;
19595;SDS011;9945;46.010;8.946;2022-11-04T09:08:53;0.30;;;0.30;;
19595;SDS011;9945;46.010;8.946;2022-11-04T09:11:22;0.22;;;0.22;;
19595;SDS011;9945;46.010;8.946;2022-11-04T09:13:49;0.80;;;0.80;;
19595;SDS011;9945;46.010;8.946;2022-11-04T09:16:17;0.65;;;0.40;;
19595;SDS011;9945;46.010;8.946;2022-11-04T09:18:44;0.20;;;0.20;;
19595;SDS011;9945;46.010;8.946;2022-11-04T09:21:11;0.32;;;0.10;;
19595;SDS011;9945;46.010;8.946;2022-11-04T09:23:39;0.40;;;0.40;;
19595;SDS011;9945;46.010;8.946;2022-11-04T09:26:07;0.30;;;0.30;;
19595;SDS011;9945;46.010;8.946;2022-11-04T09:28:35;0.35;;;0.35;;
19595;SDS011;9945;46.010;8.946;2022-11-04T09:31:05;0.30;;;0.30;;
19595;SDS011;9945;46.010;8.946;2022-11-04T09:33:32;0.82;;;0.40;;
19595;SDS011;9945;46.010;8.946;2022-11-04T09:35:59;0.30;;;0.30;;
19595;SDS011;9945;46.010;8.946;2022-11-04T09:38:26;0.25;;;0.25;;
19595;SDS011;9945;46.010;8.946;2022-11-04T09:40:56;0.47;;;0.45;;
19595;SDS011;9945;46.010;8.946;2022-11-04T09:43:31;1.10;;;0.43;;
19595;SDS011;9945;46.010;8.946;2022-11-04T09:46:10;0.40;;;0.40;;
19595;SDS011;9945;46.010;8.946;2022-11-04T09:48:40;0.38;;;0.38;;
19595;SDS011;9945;46.010;8.946;2022-11-04T09:51:10;0.73;;;0.65;;
19595;SDS011;9945;46.010;8.946;2022-11-04T09:53:40;1.27;;;0.40;;
19595;SDS011;9945;46.010;8.946;2022-11-04T09:56:14;0.30;;;0.30;;
19595;SDS011;9945;46.010;8.946;2022-11-04T09:58:44;0.20;;;0.20;;
19595;SDS011;9945;46.010;8.946;2022-11-04T10:01:14;0.30;;;0.30;;
19595;SDS011;9945;46.010;8.946;2022-11-04T10:04:01;0.75;;;0.30;;
19595;SDS011;9945;46.010;8.946;2022-11-04T10:06:47;0.38;;;0.30;;
19595;SDS011;9945;46.010;8.946;2022-11-04T10:09:33;0.30;;;0.30;;
19595;SDS011;9945;46.010;8.946;2022-11-04T10:12:11;0.40;;;0.40;;
19595;SDS011;9945;46.010;8.946;2022-11-04T10:17:56;0.35;;;0.35;;
19595;SDS011;9945;46.010;8.946;2022-11-04T10:20:32;0.90;;;0.90;;
19595;SDS011;9945;46.010;8.946;2022-11-04T10:23:15;0.50;;;0.50;;
19595;SDS011;9945;46.010;8.946;2022-11-04T10:25:48;0.60;;;0.60;;
19595;SDS011;9945;46.010;8.946;2022-11-04T10:28:20;0.68;;;0.55;;
19595;SDS011;9945;46.010;8.946;2022-11-04T10:30:55;0.35;;;0.35;;
19595;SDS011;9945;46.010;8.946;2022-11-04T10:33:24;0.90;;;0.60;;
19595;SDS011;9945;46.010;8.946;2022-11-04T10:35:55;0.45;;;0.45;;
19595;SDS011;9945;46.010;8.946;2022-11-04T10:38:30;0.35;;;0.35;;
19595;SDS011;9945;46.010;8.946;2022-11-04T10:41:01;0.50;;;0.50;;
19595;SDS011;9945;46.010;8.946;2022-11-04T10:43:41;0.40;;;0.40;;
19595;SDS011;9945;46.010;8.946;2022-11-04T10:46:13;2.08;;;0.50;;
19595;SDS011;9945;46.010;8.946;2022-11-04T10:48:50;0.55;;;0.55;;
19595;SDS011;9945;46.010;8.946;2022-11-04T10:51:26;0.55;;;0.55;;
19595;SDS011;9945;46.010;8.946;2022-11-04T10:53:53;0.60;;;0.60;;
19595;SDS011;9945;46.010;8.946;2022-11-04T10:56:24;0.93;;;0.45;;
19595;SDS011;9945;46.010;8.946;2022-11-04T10:59:05;0.80;;;0.40;;
19595;SDS011;9945;46.010;8.946;2022-11-04T11:01:47;0.73;;;0.40;;
19595;SDS011;9945;46.010;8.946;2022-11-04T11:04:23;1.38;;;0.75;;
19595;SDS011;9945;46.010;8.946;2022-11-04T11:06:52;0.28;;;0.28;;
19595;SDS011;9945;46.010;8.946;2022-11-04T11:09:21;0.70;;;0.45;;
19595;SDS011;9945;46.010;8.946;2022-11-04T11:11:54;0.38;;;0.38;;
19595;SDS011;9945;46.010;8.946;2022-11-04T11:14:32;0.55;;;0.55;;
19595;SDS011;9945;46.010;8.946;2022-11-04T11:17:15;0.40;;;0.40;;
19595;SDS011;9945;46.010;8.946;2022-11-04T11:19:45;1.92;;;0.40;;
19595;SDS011;9945;46.010;8.946;2022-11-04T11:25:11;0.77;;;0.70;;
19595;SDS011;9945;46.010;8.946;2022-11-04T11:27:44;0.32;;;0.32;;
19595;SDS011;9945;46.010;8.946;2022-11-04T11:30:19;1.17;;;0.50;;
19595;SDS011;9945;46.010;8.946;2022-11-04T11:32:49;0.50;;;0.50;;
19595;SDS011;9945;46.010;8.946;2022-11-04T11:35:21;0.40;;;0.40;;
19595;SDS011;9945;46.010;8.946;2022-11-04T11:37:50;0.82;;;0.50;;
19595;SDS011;9945;46.010;8.946;2022-11-04T11:40:22;0.40;;;0.40;;
19595;SDS011;9945;46.010;8.946;2022-11-04T11:42:55;0.40;;;0.40;;
19595;SDS011;9945;46.010;8.946;2022-11-04T11:45:25;0.60;;;0.60;;
19595;SDS011;9945;46.010;8.946;2022-11-04T11:47:53;0.40;;;0.30;;
19595;SDS011;9945;46.010;8.946;2022-11-04T11:50:22;2.75;;;0.50;;
19595;SDS011;9945;46.010;8.946;2022-11-04T11:53:06;0.32;;;0.32;;
19595;SDS011;9945;46.010;8.946;2022-11-04T11:55:40;0.55;;;0.55;;
19595;SDS011;9945;46.010;8.946;2022-11-04T11:58:15;0.57;;;0.57;;
19595;SDS011;9945;46.010;8.946;2022-11-04T12:00:55;1.02;;;0.80;;
19595;SDS011;9945;46.010;8.946;2022-11-04T12:03:29;0.38;;;0.38;;
19595;SDS011;9945;46.010;8.946;2022-11-04T12:06:06;0.65;;;0.65;;
19595;SDS011;9945;46.010;8.946;2022-11-04T12:08:53;1.40;;;0.57;;
19595;SDS011;9945;46.010;8.946;2022-11-04T12:11:30;0.55;;;0.55;;
19595;SDS011;9945;46.010;8.946;2022-11-04T12:14:04;0.30;;;0.30;;
19595;SDS011;9945;46.010;8.946;2022-11-04T12:16:39;0.50;;;0.50;;
19595;SDS011;9945;46.010;8.946;2022-11-04T12:19:18;2.15;;;0.70;;
19595;SDS011;9945;46.010;8.946;2022-11-04T12:22:06;0.95;;;0.50;;
19595;SDS011;9945;46.010;8.946;2022-11-04T12:24:44;0.68;;;0.68;;
19595;SDS011;9945;46.010;8.946;2022-11-04T12:27:20;0.95;;;0.80;;
19595;SDS011;9945;46.010;8.946;2022-11-04T12:30:00;0.50;;;0.50;;
19595;SDS011;9945;46.010;8.946;2022-11-04T12:32:35;0.57;;;0.57;;
19595;SDS011;9945;46.010;8.946;2022-11-04T12:35:13;0.60;;;0.60;;
19595;SDS011;9945;46.010;8.946;2022-11-04T12:37:53;0.55;;;0.45;;
19595;SDS011;9945;46.010;8.946;2022-11-04T12:40:33;0.40;;;0.40;;
19595;SDS011;9945;46.010;8.946;2022-11-04T12:43:14;0.50;;;0.50;;
19595;SDS011;9945;46.010;8.946;2022-11-04T12:45:55;0.68;;;0.60;;
19595;SDS011;9945;46.010;8.946;2022-11-04T12:48:36;0.35;;;0.35;;
19595;SDS011;9945;46.010;8.946;2022-11-04T12:51:15;2.28;;;0.43;;
19595;SDS011;9945;46.010;8.946;2022-11-04T12:54:00;2.75;;;0.70;;
19595;SDS011;9945;46.010;8.946;2022-11-04T12:56:41;0.50;;;0.50;;
19595;SDS011;9945;46.010;8.946;2022-11-04T12:59:19;0.40;;;0.40;;
19595;SDS011;9945;46.010;8.946;2022-11-04T13:02:00;1.13;;;0.60;;
19595;SDS011;9945;46.010;8.946;2022-11-04T13:04:39;2.28;;;0.70;;
19595;SDS011;9945;46.010;8.946;2022-11-04T13:07:13;1.52;;;0.98;;
19595;SDS011;9945;46.010;8.946;2022-11-04T13:09:47;1.10;;;1.10;;
19595;SDS011;9945;46.010;8.946;2022-11-04T13:12:20;1.73;;;0.80;;
19595;SDS011;9945;46.010;8.946;2022-11-04T13:14:51;2.65;;;0.82;;
19595;SDS011;9945;46.010;8.946;2022-11-04T13:17:22;0.93;;;0.80;;
19595;SDS011;9945;46.010;8.946;2022-11-04T13:19:54;0.50;;;0.50;;
19595;SDS011;9945;46.010;8.946;2022-11-04T13:22:24;0.95;;;0.60;;
19595;SDS011;9945;46.010;8.946;2022-11-04T13:24:56;0.60;;;0.60;;
19595;SDS011;9945;46.010;8.946;2022-11-04T13:27:29;2.60;;;0.75;;
19595;SDS011;9945;46.010;8.946;2022-11-04T13:30:03;0.70;;;0.70;;
19595;SDS011;9945;46.010;8.946;2022-11-04T13:32:34;1.00;;;0.40;;
19595;SDS011;9945;46.010;8.946;2022-11-04T13:35:09;0.80;;;0.40;;
19595;SDS011;9945;46.010;8.946;2022-11-04T13:37:47;0.30;;;0.30;;
19595;SDS011;9945;46.010;8.946;2022-11-04T13:40:23;0.98;;;0.47;;
19595;SDS011;9945;46.010;8.946;2022-11-04T13:42:56;0.90;;;0.30;;
19595;SDS011;9945;46.010;8.946;2022-11-04T13:46:01;0.95;;;0.47;;
19595;SDS011;9945;46.010;8.946;2022-11-04T13:48:30;0.32;;;0.32;;
19595;SDS011;9945;46.010;8.946;2022-11-04T13:51:01;0.20;;;0.20;;
19595;SDS011;9945;46.010;8.946;2022-11-04T13:53:41;0.63;;;0.50;;
19595;SDS011;9945;46.010;8.946;2022-11-04T13:56:23;0.30;;;0.30;;
19595;SDS011;9945;46.010;8.946;2022-11-04T13:58:53;0.98;;;0.20;;
19595;SDS011;9945;46.010;8.946;2022-11-04T14:01:27;0.38;;;0.38;;
19595;SDS011;9945;46.010;8.946;2022-11-04T14:04:27;1.88;;;0.40;;
19595;SDS011;9945;46.010;8.946;2022-11-04T14:06:57;0.30;;;0.30;;
19595;SDS011;9945;46.010;8.946;2022-11-04T14:09:32;0.20;;;0.20;;
19595;SDS011;9945;46.010;8.946;2022-11-04T14:12:33;0.47;;;0.47;;
19595;SDS011;9945;46.010;8.946;2022-11-04T14:15:08;0.52;;;0.52;;
19595;SDS011;9945;46.010;8.946;2022-11-04T14:20:27;0.40;;;0.40;;
19595;SDS011;9945;46.010;8.946;2022-11-04T14:23:00;0.98;;;0.30;;
19595;SDS011;9945;46.010;8.946;2022-11-04T14:25:35;0.35;;;0.35;;
19595;SDS011;9945;46.010;8.946;2022-11-04T14:28:18;0.30;;;0.28;;
19595;SDS011;9945;46.010;8.946;2022-11-04T14:30:53;0.30;;;0.30;;
19595;SDS011;9945;46.010;8.946;2022-11-04T14:36:24;0.20;;;0.20;;
19595;SDS011;9945;46.010;8.946;2022-11-04T14:38:57;0.50;;;0.30;;
19595;SDS011;9945;46.010;8.946;2022-11-04T14:44:20;0.77;;;0.50;;
19595;SDS011;9945;46.010;8.946;2022-11-04T14:46:54;0.20;;;0.20;;
19595;SDS011;9945;46.010;8.946;2022-11-04T14:49:41;0.30;;;0.28;;
19595;SDS011;9945;46.010;8.946;2022-11-04T14:52:13;0.30;;;0.22;;
19595;SDS011;9945;46.010;8.946;2022-11-04T14:54:46;0.20;;;0.20;;
19595;SDS011;9945;46.010;8.946;2022-11-04T14:57:14;0.40;;;0.40;;
19595;SDS011;9945;46.010;8.946;2022-11-04T14:59:42;0.52;;;0.52;;
19595;SDS011;9945;46.010;8.946;2022-11-04T15:02:14;0.43;;;0.43;;
19595;SDS011;9945;46.010;8.946;2022-11-04T15:04:47;0.40;;;0.40;;
19595;SDS011;9945;46.010;8.946;2022-11-04T15:07:21;0.30;;;0.30;;
19595;SDS011;9945;46.010;8.946;2022-11-04T15:09:52;0.30;;;0.30;;
19595;SDS011;9945;46.010;8.946;2022-11-04T15:12:19;0.40;;;0.40;;
19595;SDS011;9945;46.010;8.946;2022-11-04T15:17:52;0.63;;;0.40;;
19595;SDS011;9945;46.010;8.946;2022-11-04T15:20:23;1.30;;;0.40;;
19595;SDS011;9945;46.010;8.946;2022-11-04T15:22:50;1.75;;;0.60;;
19595;SDS011;9945;46.010;8.946;2022-11-04T15:25:21;0.30;;;0.30;;
19595;SDS011;9945;46.010;8.946;2022-11-04T15:27:48;0.52;;;0.52;;
19595;SDS011;9945;46.010;8.946;2022-11-04T15:30:18;0.68;;;0.68;;
19595;SDS011;9945;46.010;8.946;2022-11-04T15:32:53;0.40;;;0.40;;
19595;SDS011;9945;46.010;8.946;2022-11-04T15:35:22;2.65;;;0.60;;
19595;SDS011;9945;46.010;8.946;2022-11-04T15:37:50;0.45;;;0.45;;
19595;SDS011;9945;46.010;8.946;2022-11-04T15:40:18;0.40;;;0.40;;
19595;SDS011;9945;46.010;8.946;2022-11-04T15:42:47;0.80;;;0.32;;
19595;SDS011;9945;46.010;8.946;2022-11-04T15:45:24;0.35;;;0.35;;
19595;SDS011;9945;46.010;8.946;2022-11-04T15:50:56;0.40;;;0.40;;
19595;SDS011;9945;46.010;8.946;2022-11-04T15:53:31;0.15;;;0.15;;
19595;SDS011;9945;46.010;8.946;2022-11-04T15:56:04;0.38;;;0.38;;